Time;durP1;ratioP1;P1;durP2;ratioP2;P2;SDS_P1;SDS_P2;PMS_P1;PMS_P2;Temp;Humidity;BMP_temperature;BMP_pressure;BME280_temperature;BME280_humidity;BME280_pressure;Samples;Min_cycle;Max_cycle;Signal;HPM_P1;HPM_P2
2021/04/04 00:00:40;;;;;;;11.60;11.45;;;;;;;;;;5026943;28;20474;-47
2021/04/04 00:03:06;;;;;;;14.88;14.63;;;;;;;;;;5031022;28;20040;-47
2021/04/04 00:05:33;;;;;;;14.73;14.52;;;;;;;;;;5027614;28;20812;-47
2021/04/04 00:07:59;;;;;;;14.48;14.18;;;;;;;;;;5030280;28;20041;-50
2021/04/04 00:10:25;;;;;;;14.27;14.07;;;;;;;;;;5024639;28;20108;-48
2021/04/04 00:12:52;;;;;;;15.63;15.43;;;;;;;;;;5027261;28;20354;-49
2021/04/04 00:15:18;;;;;;;15.65;15.55;;;;;;;;;;5030826;28;20044;-48
2021/04/04 00:17:45;;;;;;;14.82;14.63;;;;;;;;;;5024284;28;20056;-50
2021/04/04 00:20:12;;;;;;;16.08;15.75;;;;;;;;;;5027428;28;20038;-48
2021/04/04 00:22:39;;;;;;;15.38;15.18;;;;;;;;;;5033238;28;20065;-48
2021/04/04 00:25:06;;;;;;;16.80;16.25;;;;;;;;;;5026111;28;20044;-49
2021/04/04 00:27:33;;;;;;;17.17;16.38;;;;;;;;;;5031885;28;20183;-52
2021/04/04 00:29:59;;;;;;;14.88;14.75;;;;;;;;;;5028129;28;20428;-48
2021/04/04 00:32:26;;;;;;;16.30;16.10;;;;;;;;;;5021212;28;20121;-46
2021/04/04 00:34:53;;;;;;;16.25;15.95;;;;;;;;;;5032586;28;20103;-48
2021/04/04 00:37:19;;;;;;;16.17;15.88;;;;;;;;;;5022953;28;20049;-48
2021/04/04 00:39:46;;;;;;;15.40;14.77;;;;;;;;;;5028869;28;20039;-47
2021/04/04 00:42:12;;;;;;;17.15;16.90;;;;;;;;;;5027534;28;20092;-47
2021/04/04 00:44:38;;;;;;;18.42;18.13;;;;;;;;;;5020163;28;20372;-47
2021/04/04 00:47:05;;;;;;;17.70;17.40;;;;;;;;;;5031575;28;20053;-48
2021/04/04 00:49:31;;;;;;;16.70;16.50;;;;;;;;;;5022866;28;20442;-46
2021/04/04 00:51:57;;;;;;;17.92;17.73;;;;;;;;;;5018258;28;20429;-47
2021/04/04 00:54:23;;;;;;;17.95;17.63;;;;;;;;;;5028896;28;20033;-52
2021/04/04 00:56:50;;;;;;;17.27;16.85;;;;;;;;;;5024459;28;20042;-47
2021/04/04 00:59:16;;;;;;;17.17;16.77;;;;;;;;;;5017584;28;20046;-47
2021/04/04 01:01:45;;;;;;;17.52;17.10;;;;;;;;;;5025714;28;20120;-48
2021/04/04 01:04:11;;;;;;;15.35;15.20;;;;;;;;;;5027892;28;20056;-47
2021/04/04 01:06:38;;;;;;;17.95;17.65;;;;;;;;;;5018389;28;20038;-47
2021/04/04 01:09:04;;;;;;;16.20;15.90;;;;;;;;;;5025025;28;20087;-48
2021/04/04 01:11:38;;;;;;;16.63;16.30;;;;;;;;;;5032372;28;20033;-48
2021/04/04 01:14:04;;;;;;;16.45;16.35;;;;;;;;;;5025884;28;20041;-48
2021/04/04 01:16:34;;;;;;;18.42;18.13;;;;;;;;;;5025862;28;20419;-47
2021/04/04 01:19:18;;;;;;;19.40;19.20;;;;;;;;;;5029929;28;20049;-47
2021/04/04 01:21:51;;;;;;;18.05;17.85;;;;;;;;;;5023628;28;20061;-49
2021/04/04 01:24:26;;;;;;;18.67;18.17;;;;;;;;;;5022709;28;20050;-45
2021/04/04 01:26:59;;;;;;;17.15;16.95;;;;;;;;;;5029530;28;20048;-50
2021/04/04 01:29:26;;;;;;;17.08;16.80;;;;;;;;;;5022148;28;20042;-47
2021/04/04 01:31:53;;;;;;;20.00;19.40;;;;;;;;;;5020090;28;20629;-47
2021/04/04 01:34:21;;;;;;;19.42;19.13;;;;;;;;;;5026469;28;20033;-46
2021/04/04 01:36:50;;;;;;;17.05;16.85;;;;;;;;;;5026749;28;20085;-48
2021/04/04 01:39:18;;;;;;;18.98;18.73;;;;;;;;;;5030974;28;20052;-46
2021/04/04 01:41:46;;;;;;;19.02;18.83;;;;;;;;;;5023837;28;20052;-47
2021/04/04 01:44:19;;;;;;;17.95;17.65;;;;;;;;;;5027976;28;20041;-48
2021/04/04 01:46:46;;;;;;;20.90;20.60;;;;;;;;;;5027501;28;20047;-46
2021/04/04 01:49:13;;;;;;;19.08;18.52;;;;;;;;;;5025905;28;20050;-48
2021/04/04 01:51:41;;;;;;;19.60;19.30;;;;;;;;;;5030174;28;20457;-47
2021/04/04 01:54:07;;;;;;;20.08;19.60;;;;;;;;;;5025282;28;20051;-47
2021/04/04 01:56:34;;;;;;;19.70;19.20;;;;;;;;;;5029054;28;20563;-46
2021/04/04 01:59:01;;;;;;;19.83;19.13;;;;;;;;;;5015714;28;20034;-49
2021/04/04 02:01:28;;;;;;;18.77;18.58;;;;;;;;;;5021805;28;20420;-48
2021/04/04 02:03:59;;;;;;;19.88;19.67;;;;;;;;;;5030765;28;20045;-50
2021/04/04 02:06:25;;;;;;;22.48;21.73;;;;;;;;;;5021525;28;20037;-47
2021/04/04 02:08:53;;;;;;;20.05;19.55;;;;;;;;;;5016379;28;20048;-46
2021/04/04 02:11:21;;;;;;;20.58;20.15;;;;;;;;;;5035391;28;20034;-48
2021/04/04 02:13:49;;;;;;;20.25;19.88;;;;;;;;;;5021875;28;20509;-50
2021/04/04 02:16:16;;;;;;;17.80;17.40;;;;;;;;;;5030470;28;20374;-47
2021/04/04 02:18:43;;;;;;;19.85;19.58;;;;;;;;;;5027910;28;20045;-47
2021/04/04 02:21:09;;;;;;;19.50;19.08;;;;;;;;;;5025065;28;20041;-45
2021/04/04 02:23:36;;;;;;;18.65;18.33;;;;;;;;;;5028382;28;20049;-48
2021/04/04 02:26:06;;;;;;;18.27;17.88;;;;;;;;;;5021877;28;20095;-46
2021/04/04 02:28:32;;;;;;;19.90;19.55;;;;;;;;;;5029565;28;20052;-48
2021/04/04 02:30:59;;;;;;;19.83;19.33;;;;;;;;;;5027431;28;20037;-46
2021/04/04 02:33:30;;;;;;;19.35;18.85;;;;;;;;;;5025679;28;20053;-48
2021/04/04 02:35:59;;;;;;;19.80;19.35;;;;;;;;;;5031043;28;20124;-48
2021/04/04 02:38:31;;;;;;;19.92;19.50;;;;;;;;;;5017427;28;20041;-48
2021/04/04 02:40:59;;;;;;;20.20;19.50;;;;;;;;;;5017382;28;20092;-47
2021/04/04 02:43:29;;;;;;;18.50;18.27;;;;;;;;;;5027947;28;20041;-47
2021/04/04 02:45:56;;;;;;;18.95;18.48;;;;;;;;;;5024998;28;20061;-46
2021/04/04 02:48:31;;;;;;;20.13;19.67;;;;;;;;;;5028878;28;21583;-49
2021/04/04 02:51:01;;;;;;;19.63;19.27;;;;;;;;;;5026691;28;20026;-47
2021/04/04 02:53:28;;;;;;;21.20;20.48;;;;;;;;;;5026340;28;20042;-48
2021/04/04 02:55:57;;;;;;;21.48;21.10;;;;;;;;;;5030606;28;20505;-48
2021/04/04 02:58:25;;;;;;;20.08;19.48;;;;;;;;;;5023898;28;20041;-48
2021/04/04 03:00:53;;;;;;;17.10;16.85;;;;;;;;;;5027989;28;20038;-48
2021/04/04 03:03:24;;;;;;;18.65;18.45;;;;;;;;;;5029386;28;20056;-48
2021/04/04 03:06:03;;;;;;;20.55;20.25;;;;;;;;;;5027501;28;20131;-47
2021/04/04 03:08:29;;;;;;;17.58;17.48;;;;;;;;;;5033535;28;20486;-46
2021/04/04 03:10:58;;;;;;;19.45;19.13;;;;;;;;;;5028837;28;20041;-50
2021/04/04 03:13:24;;;;;;;19.52;19.08;;;;;;;;;;5029705;28;20377;-48
2021/04/04 03:15:51;;;;;;;18.85;18.60;;;;;;;;;;5032815;28;20044;-48
2021/04/04 03:18:18;;;;;;;20.95;20.75;;;;;;;;;;5025392;28;20517;-48
2021/04/04 03:20:46;;;;;;;21.30;20.90;;;;;;;;;;5031385;28;20103;-48
2021/04/04 03:23:15;;;;;;;20.80;20.50;;;;;;;;;;5029181;28;20124;-47
2021/04/04 03:25:42;;;;;;;19.60;19.27;;;;;;;;;;5027311;28;20045;-51
2021/04/04 03:28:09;;;;;;;22.40;21.90;;;;;;;;;;5034398;28;20044;-49
2021/04/04 03:30:35;;;;;;;19.35;19.05;;;;;;;;;;5025043;28;20069;-47
2021/04/04 03:33:05;;;;;;;18.40;18.23;;;;;;;;;;5031985;28;20038;-48
2021/04/04 03:35:32;;;;;;;20.58;20.17;;;;;;;;;;5028551;28;20486;-47
2021/04/04 03:38:00;;;;;;;18.38;18.13;;;;;;;;;;5026679;28;20041;-51
2021/04/04 03:40:27;;;;;;;21.52;21.05;;;;;;;;;;5033209;28;20052;-50
2021/04/04 03:42:53;;;;;;;19.35;19.02;;;;;;;;;;5027788;28;20103;-46
2021/04/04 03:45:20;;;;;;;22.63;21.92;;;;;;;;;;5021396;28;20553;-50
2021/04/04 03:47:47;;;;;;;20.75;20.08;;;;;;;;;;5028671;28;20061;-47
2021/04/04 03:50:16;;;;;;;19.15;18.85;;;;;;;;;;5026447;28;20451;-47
2021/04/04 03:52:43;;;;;;;21.13;20.92;;;;;;;;;;5026850;28;20383;-48
2021/04/04 03:55:10;;;;;;;20.42;19.92;;;;;;;;;;5025452;28;20100;-47
2021/04/04 03:57:37;;;;;;;21.73;21.25;;;;;;;;;;5028823;28;20034;-46
2021/04/04 04:00:05;;;;;;;20.35;19.88;;;;;;;;;;5030443;28;20037;-49
2021/04/04 04:02:32;;;;;;;19.95;19.63;;;;;;;;;;5026226;28;20453;-46
2021/04/04 04:04:59;;;;;;;19.30;18.83;;;;;;;;;;5033695;28;20045;-47
2021/04/04 04:07:26;;;;;;;21.88;20.95;;;;;;;;;;5028594;28;20034;-48
2021/04/04 04:09:52;;;;;;;19.52;19.33;;;;;;;;;;5027184;28;20490;-47
2021/04/04 04:12:18;;;;;;;19.98;19.77;;;;;;;;;;5029230;28;20053;-47
2021/04/04 04:14:45;;;;;;;19.95;19.48;;;;;;;;;;5022351;28;20045;-47
2021/04/04 04:17:11;;;;;;;22.80;22.20;;;;;;;;;;5031870;28;20488;-48
2021/04/04 04:19:38;;;;;;;21.02;20.63;;;;;;;;;;5026746;28;20053;-47
2021/04/04 04:22:05;;;;;;;21.05;20.75;;;;;;;;;;5022122;28;20537;-48
2021/04/04 04:24:31;;;;;;;21.45;21.08;;;;;;;;;;5017932;28;20030;-47
2021/04/04 04:26:57;;;;;;;21.20;20.77;;;;;;;;;;5020799;28;20038;-47
2021/04/04 04:29:25;;;;;;;21.33;21.02;;;;;;;;;;5017312;28;20066;-48
2021/04/04 04:31:54;;;;;;;21.58;21.27;;;;;;;;;;5029071;28;20041;-48
2021/04/04 04:34:21;;;;;;;19.48;19.23;;;;;;;;;;5026172;28;20041;-47
2021/04/04 04:36:48;;;;;;;21.40;21.00;;;;;;;;;;5033328;28;20046;-48
2021/04/04 04:39:14;;;;;;;20.77;20.42;;;;;;;;;;5025067;28;20051;-48
2021/04/04 04:41:43;;;;;;;21.13;20.52;;;;;;;;;;5030502;28;20477;-47
2021/04/04 04:44:12;;;;;;;20.10;19.90;;;;;;;;;;5028722;28;20498;-48
2021/04/04 04:46:38;;;;;;;20.70;20.40;;;;;;;;;;5027391;28;20478;-47
2021/04/04 04:49:08;;;;;;;21.20;20.75;;;;;;;;;;5032717;28;20037;-48
2021/04/04 04:51:35;;;;;;;21.23;20.67;;;;;;;;;;5025563;28;20041;-48
2021/04/04 04:54:02;;;;;;;20.23;19.92;;;;;;;;;;5022527;28;20087;-47
2021/04/04 04:56:29;;;;;;;23.85;23.30;;;;;;;;;;5016520;28;20394;-47
2021/04/04 04:58:56;;;;;;;22.00;21.70;;;;;;;;;;5021799;28;20418;-48
2021/04/04 05:01:27;;;;;;;19.38;19.08;;;;;;;;;;5032666;28;20029;-46
2021/04/04 05:03:53;;;;;;;21.52;21.13;;;;;;;;;;5025515;28;20489;-47
2021/04/04 05:06:23;;;;;;;20.77;20.48;;;;;;;;;;5026335;28;20049;-48
2021/04/04 05:08:50;;;;;;;21.85;21.40;;;;;;;;;;5030253;28;20040;-47
2021/04/04 05:11:17;;;;;;;23.33;22.83;;;;;;;;;;5025823;28;20036;-48
2021/04/04 05:13:43;;;;;;;22.40;22.10;;;;;;;;;;5031719;28;20041;-47
2021/04/04 05:16:14;;;;;;;20.17;19.92;;;;;;;;;;5027496;28;20049;-47
2021/04/04 05:18:52;;;;;;;20.83;20.38;;;;;;;;;;5019900;28;20084;-48
2021/04/04 05:21:26;;;;;;;18.92;18.40;;;;;;;;;;5030236;28;20045;-48
2021/04/04 05:23:59;;;;;;;24.52;24.02;;;;;;;;;;5024345;28;20100;-48
2021/04/04 05:26:35;;;;;;;20.33;20.05;;;;;;;;;;5026320;28;20080;-47
2021/04/04 05:29:02;;;;;;;22.98;22.48;;;;;;;;;;5014894;28;20061;-46
2021/04/04 05:31:29;;;;;;;22.35;21.60;;;;;;;;;;5020160;28;20069;-47
2021/04/04 05:33:55;;;;;;;21.17;20.88;;;;;;;;;;5015039;28;20042;-48
2021/04/04 05:36:22;;;;;;;20.75;20.35;;;;;;;;;;5026515;28;20374;-48
2021/04/04 05:38:49;;;;;;;21.27;21.02;;;;;;;;;;5025717;28;20038;-48
2021/04/04 05:41:17;;;;;;;21.98;21.25;;;;;;;;;;5029195;28;20049;-51
2021/04/04 05:43:50;;;;;;;23.75;22.83;;;;;;;;;;5024165;28;20477;-47
2021/04/04 05:46:36;;;;;;;22.90;22.20;;;;;;;;;;5030661;28;20053;-51
2021/04/04 05:49:05;;;;;;;24.15;23.58;;;;;;;;;;5028787;28;20053;-48
2021/04/04 05:51:35;;;;;;;24.60;23.55;;;;;;;;;;5025270;28;20095;-47
2021/04/04 05:54:27;;;;;;;22.50;21.95;;;;;;;;;;5027376;28;20041;-48
2021/04/04 05:56:56;;;;;;;22.27;21.85;;;;;;;;;;5028525;28;20451;-50
2021/04/04 05:59:41;;;;;;;18.23;17.83;;;;;;;;;;5025145;28;20041;-47
2021/04/04 06:02:08;;;;;;;19.70;19.38;;;;;;;;;;5021207;28;20061;-47
2021/04/04 06:04:40;;;;;;;20.20;19.70;;;;;;;;;;5026930;28;20124;-47
2021/04/04 06:07:25;;;;;;;20.98;20.38;;;;;;;;;;5023838;28;20456;-50
2021/04/04 06:09:54;;;;;;;20.15;19.67;;;;;;;;;;5030015;28;20450;-47
2021/04/04 06:12:40;;;;;;;18.27;17.98;;;;;;;;;;5024459;28;20045;-49
2021/04/04 06:15:19;;;;;;;15.98;15.32;;;;;;;;;;5027109;28;20033;-46
2021/04/04 06:18:00;;;;;;;17.55;17.25;;;;;;;;;;5022908;28;20060;-46
2021/04/04 06:20:40;;;;;;;18.17;17.80;;;;;;;;;;5023496;28;20041;-49
2021/04/04 06:23:06;;;;;;;18.17;17.92;;;;;;;;;;5026130;28;20045;-50
2021/04/04 06:25:59;;;;;;;18.90;18.40;;;;;;;;;;5030391;28;20132;-47
2021/04/04 06:28:41;;;;;;;18.30;17.83;;;;;;;;;;5023240;28;20116;-47
2021/04/04 06:31:27;;;;;;;17.35;17.05;;;;;;;;;;5024410;28;20045;-48
2021/04/04 06:34:01;;;;;;;14.57;14.27;;;;;;;;;;5015285;28;20046;-48
2021/04/04 06:36:39;;;;;;;14.13;13.82;;;;;;;;;;5022748;28;20029;-47
2021/04/04 06:39:07;;;;;;;6.47;6.35;;;;;;;;;;5031673;28;20045;-50
2021/04/04 06:41:39;;;;;;;8.68;8.20;;;;;;;;;;5019607;28;20586;-48
2021/04/04 06:44:09;;;;;;;1.85;1.85;;;;;;;;;;5025766;28;20136;-49
2021/04/04 06:46:44;;;;;;;2.67;2.45;;;;;;;;;;5032907;28;20053;-50
2021/04/04 06:49:10;;;;;;;2.45;2.35;;;;;;;;;;5030535;28;20061;-48
2021/04/04 06:51:52;;;;;;;3.30;3.20;;;;;;;;;;5027517;28;20049;-52
2021/04/04 06:54:41;;;;;;;2.90;2.80;;;;;;;;;;5024273;28;20053;-52
2021/04/04 06:57:14;;;;;;;3.17;2.95;;;;;;;;;;5027170;28;20104;-47
2021/04/04 06:59:55;;;;;;;4.72;4.63;;;;;;;;;;5026254;28;20457;-51
2021/04/04 07:02:23;;;;;;;7.90;7.70;;;;;;;;;;5017254;28;20041;-48
2021/04/04 07:04:52;;;;;;;4.32;4.22;;;;;;;;;;5022303;28;20034;-47
2021/04/04 07:07:19;;;;;;;2.47;2.47;;;;;;;;;;5023231;28;20042;-50
2021/04/04 07:09:48;;;;;;;3.97;3.90;;;;;;;;;;5032460;28;20486;-50
2021/04/04 07:12:26;;;;;;;2.58;2.47;;;;;;;;;;5025754;28;20057;-49
2021/04/04 07:15:07;;;;;;;5.72;5.30;;;;;;;;;;5030860;28;20042;-51
2021/04/04 07:17:49;;;;;;;3.63;3.42;;;;;;;;;;5028813;28;20039;-52
2021/04/04 07:20:37;;;;;;;2.95;2.65;;;;;;;;;;5026257;28;20099;-50
2021/04/04 07:23:26;;;;;;;2.13;1.42;;;;;;;;;;5026043;28;20045;-51
2021/04/04 07:25:55;;;;;;;1.70;1.70;;;;;;;;;;5030738;28;20061;-51
2021/04/04 07:28:33;;;;;;;2.38;1.45;;;;;;;;;;5022566;28;20033;-50
2021/04/04 07:31:03;;;;;;;2.22;1.38;;;;;;;;;;5031120;28;20490;-49
2021/04/04 07:33:48;;;;;;;1.70;1.38;;;;;;;;;;5026106;28;20060;-50
2021/04/04 07:36:29;;;;;;;3.80;1.30;;;;;;;;;;5025954;28;20046;-49
2021/04/04 07:39:06;;;;;;;1.65;1.50;;;;;;;;;;5027055;28;20045;-49
2021/04/04 07:41:32;;;;;;;1.80;1.70;;;;;;;;;;5028089;28;20049;-50
2021/04/04 07:44:13;;;;;;;1.65;1.45;;;;;;;;;;5024754;28;20033;-52
2021/04/04 07:46:43;;;;;;;1.20;1.20;;;;;;;;;;5029663;28;20049;-48
2021/04/04 07:49:14;;;;;;;0.90;0.90;;;;;;;;;;5022269;28;20500;-52
2021/04/04 07:51:44;;;;;;;4.68;1.17;;;;;;;;;;5025525;28;20459;-52
2021/04/04 07:54:14;;;;;;;2.15;1.10;;;;;;;;;;5028852;28;20394;-52
2021/04/04 07:56:50;;;;;;;1.63;1.63;;;;;;;;;;5039063;28;20432;-49
2021/04/04 07:59:19;;;;;;;1.40;1.20;;;;;;;;;;5026466;28;20037;-52
2021/04/04 08:01:51;;;;;;;1.00;0.90;;;;;;;;;;5025821;28;20046;-50
2021/04/04 08:04:35;;;;;;;1.10;1.10;;;;;;;;;;5024119;28;20498;-52
2021/04/04 08:07:28;;;;;;;0.90;0.90;;;;;;;;;;5030493;28;20061;-49
2021/04/04 08:09:56;;;;;;;2.13;2.03;;;;;;;;;;5024663;28;20054;-52
2021/04/04 08:12:29;;;;;;;1.33;1.00;;;;;;;;;;5026860;28;20065;-52
2021/04/04 08:15:04;;;;;;;1.52;1.42;;;;;;;;;;5026761;28;20051;-52
2021/04/04 08:17:30;;;;;;;1.17;1.08;;;;;;;;;;5027122;28;20554;-52
2021/04/04 08:20:05;;;;;;;1.10;1.00;;;;;;;;;;5025225;28;20053;-51
2021/04/04 08:22:35;;;;;;;1.38;1.27;;;;;;;;;;5042220;28;20064;-52
2021/04/04 08:25:06;;;;;;;1.15;1.00;;;;;;;;;;5025829;28;20045;-52
2021/04/04 08:27:35;;;;;;;1.00;1.00;;;;;;;;;;5028698;28;20068;-52
2021/04/04 08:30:20;;;;;;;2.05;1.63;;;;;;;;;;5029790;28;20037;-52
2021/04/04 08:32:46;;;;;;;2.17;2.08;;;;;;;;;;5021566;28;20049;-52
2021/04/04 08:35:19;;;;;;;1.60;1.60;;;;;;;;;;5026256;28;20065;-52
2021/04/04 08:37:47;;;;;;;2.30;1.10;;;;;;;;;;5026796;28;20053;-51
2021/04/04 08:40:15;;;;;;;2.80;2.25;;;;;;;;;;5024706;28;20490;-52
2021/04/04 08:42:42;;;;;;;1.27;1.17;;;;;;;;;;5028220;28;20417;-52
2021/04/04 08:45:11;;;;;;;1.35;1.15;;;;;;;;;;5024282;28;20061;-52
2021/04/04 08:47:40;;;;;;;1.92;1.92;;;;;;;;;;5026738;28;20053;-53
2021/04/04 08:50:15;;;;;;;3.83;3.83;;;;;;;;;;5027175;28;20385;-53
2021/04/04 08:52:55;;;;;;;2.95;2.85;;;;;;;;;;5023726;28;20033;-52
2021/04/04 08:55:23;;;;;;;2.13;2.13;;;;;;;;;;5030228;28;20033;-52
2021/04/04 08:57:50;;;;;;;1.30;1.20;;;;;;;;;;5024038;28;20042;-53
2021/04/04 09:00:17;;;;;;;3.60;3.50;;;;;;;;;;5019052;28;20534;-53
2021/04/04 09:02:49;;;;;;;2.20;2.10;;;;;;;;;;5030109;28;20060;-51
2021/04/04 09:05:20;;;;;;;1.33;1.33;;;;;;;;;;5023803;28;20053;-50
2021/04/04 09:07:46;;;;;;;2.10;1.42;;;;;;;;;;5023169;28;20041;-54
2021/04/04 09:10:15;;;;;;;2.50;2.50;;;;;;;;;;5019950;28;20044;-51
2021/04/04 09:12:43;;;;;;;1.35;1.10;;;;;;;;;;5023917;28;20042;-52
2021/04/04 09:15:10;;;;;;;2.20;2.10;;;;;;;;;;5032032;28;20041;-53
2021/04/04 09:17:37;;;;;;;3.22;2.97;;;;;;;;;;5023640;28;20119;-53
2021/04/04 09:20:05;;;;;;;0.90;0.90;;;;;;;;;;5025151;28;20030;-52
2021/04/04 09:22:33;;;;;;;1.30;1.00;;;;;;;;;;5028676;28;20044;-52
2021/04/04 09:25:07;;;;;;;1.00;1.00;;;;;;;;;;5026336;28;20053;-51
2021/04/04 09:27:35;;;;;;;1.08;1.08;;;;;;;;;;5023428;28;20045;-53
2021/04/04 09:30:04;;;;;;;1.67;1.52;;;;;;;;;;5025029;28;20068;-51
2021/04/04 09:32:30;;;;;;;1.10;1.00;;;;;;;;;;5026053;28;20040;-52
2021/04/04 09:34:58;;;;;;;1.50;1.50;;;;;;;;;;5024047;28;20429;-51
2021/04/04 09:37:25;;;;;;;1.65;1.10;;;;;;;;;;5025047;28;20041;-53
2021/04/04 09:39:52;;;;;;;1.63;1.50;;;;;;;;;;5025717;28;20445;-52
2021/04/04 09:42:18;;;;;;;2.15;2.15;;;;;;;;;;5024083;28;20041;-52
2021/04/04 09:44:47;;;;;;;1.85;1.75;;;;;;;;;;5029923;28;20038;-51
2021/04/04 09:47:14;;;;;;;1.90;1.80;;;;;;;;;;5019812;28;20453;-51
2021/04/04 09:49:48;;;;;;;3.53;3.53;;;;;;;;;;5018560;28;20141;-52
2021/04/04 09:52:15;;;;;;;2.47;2.35;;;;;;;;;;5027327;28;20485;-53
2021/04/04 09:55:01;;;;;;;3.33;2.40;;;;;;;;;;5022973;28;20033;-52
2021/04/04 09:57:52;;;;;;;1.25;1.25;;;;;;;;;;5024093;28;20048;-48
2021/04/04 10:00:21;;;;;;;2.80;1.08;;;;;;;;;;5023862;28;20037;-52
2021/04/04 10:02:49;;;;;;;2.65;1.30;;;;;;;;;;5021128;28;20030;-53
2021/04/04 10:05:32;;;;;;;1.00;1.00;;;;;;;;;;5020371;28;20056;-52
2021/04/04 10:08:12;;;;;;;1.50;1.40;;;;;;;;;;5021098;28;20052;-52
2021/04/04 10:10:39;;;;;;;2.17;1.52;;;;;;;;;;5026052;28;20370;-49
2021/04/04 10:13:06;;;;;;;2.28;1.00;;;;;;;;;;5027838;28;20060;-53
2021/04/04 10:15:39;;;;;;;0.90;0.90;;;;;;;;;;5020716;28;20490;-50
2021/04/04 10:18:06;;;;;;;0.90;0.90;;;;;;;;;;5028329;28;20041;-49
2021/04/04 10:20:34;;;;;;;1.00;1.00;;;;;;;;;;5017574;28;20052;-53
2021/04/04 10:23:02;;;;;;;1.20;1.10;;;;;;;;;;5025789;28;20492;-53
2021/04/04 10:25:28;;;;;;;1.70;1.00;;;;;;;;;;5027774;28;20117;-50
2021/04/04 10:28:02;;;;;;;0.90;0.90;;;;;;;;;;5024206;28;20128;-52
2021/04/04 10:30:30;;;;;;;1.48;1.20;;;;;;;;;;5025938;28;20188;-52
2021/04/04 10:33:15;;;;;;;1.40;1.05;;;;;;;;;;5026489;28;20041;-53
2021/04/04 10:35:42;;;;;;;0.90;0.90;;;;;;;;;;5019629;28;20069;-51
2021/04/04 10:38:10;;;;;;;1.40;0.90;;;;;;;;;;5029314;28;20466;-52
2021/04/04 10:40:42;;;;;;;2.05;0.90;;;;;;;;;;5024329;28;20596;-52
2021/04/04 10:43:09;;;;;;;1.35;1.00;;;;;;;;;;5026407;28;20064;-52
2021/04/04 10:45:36;;;;;;;1.13;1.08;;;;;;;;;;5027580;28;20045;-53
2021/04/04 10:48:06;;;;;;;0.80;0.80;;;;;;;;;;5022616;28;20409;-50
2021/04/04 10:50:36;;;;;;;1.42;1.10;;;;;;;;;;5020334;28;20424;-53
2021/04/04 10:53:02;;;;;;;1.50;1.30;;;;;;;;;;5022547;28;20041;-50
2021/04/04 10:55:29;;;;;;;2.38;2.28;;;;;;;;;;5024490;28;20498;-53
2021/04/04 10:57:56;;;;;;;1.02;1.02;;;;;;;;;;5031061;28;20047;-53
2021/04/04 11:00:22;;;;;;;3.13;1.90;;;;;;;;;;5023545;28;20413;-50
2021/04/04 11:02:49;;;;;;;1.45;0.98;;;;;;;;;;5029956;28;20033;-51
2021/04/04 11:05:16;;;;;;;1.63;1.10;;;;;;;;;;5025334;28;20509;-53
2021/04/04 11:07:43;;;;;;;3.70;1.25;;;;;;;;;;5024436;28;20124;-50
2021/04/04 11:10:09;;;;;;;1.88;1.20;;;;;;;;;;5031405;28;20120;-51
2021/04/04 11:12:39;;;;;;;1.40;1.38;;;;;;;;;;5023676;28;20041;-52
2021/04/04 11:15:09;;;;;;;1.20;1.10;;;;;;;;;;5027050;28;20073;-51
2021/04/04 11:17:35;;;;;;;2.08;1.40;;;;;;;;;;5027715;28;20055;-52
2021/04/04 11:20:05;;;;;;;1.67;0.98;;;;;;;;;;5023679;28;20042;-53
2021/04/04 11:22:32;;;;;;;2.10;2.00;;;;;;;;;;5030652;28;20147;-54
2021/04/04 11:25:00;;;;;;;1.60;1.50;;;;;;;;;;5026492;28;20041;-53
2021/04/04 11:27:40;;;;;;;1.52;1.00;;;;;;;;;;5030487;28;20041;-52
2021/04/04 11:30:08;;;;;;;6.43;4.68;;;;;;;;;;5031237;28;20116;-52
2021/04/04 11:32:34;;;;;;;1.77;1.48;;;;;;;;;;5026537;28;20049;-53
2021/04/04 11:35:02;;;;;;;10.40;8.93;;;;;;;;;;5033089;28;20129;-51
2021/04/04 11:37:28;;;;;;;6.10;5.63;;;;;;;;;;5028208;28;20030;-52
2021/04/04 11:40:13;;;;;;;2.53;1.35;;;;;;;;;;5027935;28;20458;-53
2021/04/04 11:42:43;;;;;;;0.90;0.90;;;;;;;;;;5034331;28;20048;-53
2021/04/04 11:45:10;;;;;;;0.80;0.80;;;;;;;;;;5029103;28;20048;-53
2021/04/04 11:47:37;;;;;;;0.80;0.80;;;;;;;;;;5029594;28;20046;-53
2021/04/04 11:50:24;;;;;;;1.30;1.30;;;;;;;;;;5031574;28;20041;-53
2021/04/04 11:52:52;;;;;;;1.10;1.02;;;;;;;;;;5026879;28;20520;-53
2021/04/04 11:55:19;;;;;;;0.90;0.90;;;;;;;;;;5031433;28;20072;-53
2021/04/04 11:57:47;;;;;;;1.58;1.00;;;;;;;;;;5027955;28;20092;-54
2021/04/04 12:00:21;;;;;;;0.90;0.90;;;;;;;;;;5027869;28;20060;-53
2021/04/04 12:02:57;;;;;;;1.83;1.10;;;;;;;;;;5032824;28;20087;-52
2021/04/04 12:05:23;;;;;;;0.90;0.90;;;;;;;;;;5028469;28;20083;-51
2021/04/04 12:07:51;;;;;;;1.23;0.95;;;;;;;;;;5029621;28;20366;-53
2021/04/04 12:10:18;;;;;;;0.90;0.90;;;;;;;;;;5030562;28;20562;-52
2021/04/04 12:12:45;;;;;;;1.35;0.80;;;;;;;;;;5026946;28;20599;-53
2021/04/04 12:15:18;;;;;;;0.80;0.80;;;;;;;;;;5032032;28;20037;-52
2021/04/04 12:17:46;;;;;;;2.28;1.10;;;;;;;;;;5028395;28;20045;-53
2021/04/04 12:20:13;;;;;;;0.80;0.80;;;;;;;;;;5022259;28;20118;-53
2021/04/04 12:22:43;;;;;;;0.80;0.80;;;;;;;;;;5030037;28;20048;-53
2021/04/04 12:25:17;;;;;;;2.92;2.80;;;;;;;;;;5022382;28;20501;-47
2021/04/04 12:27:44;;;;;;;0.90;0.90;;;;;;;;;;5027684;28;20037;-47
2021/04/04 12:30:31;;;;;;;1.80;1.10;;;;;;;;;;5024966;28;20048;-45
2021/04/04 12:33:03;;;;;;;2.58;1.10;;;;;;;;;;5022665;28;20421;-45
2021/04/04 12:35:32;;;;;;;5.03;0.90;;;;;;;;;;5024696;28;20393;-44
2021/04/04 12:37:58;;;;;;;1.85;1.00;;;;;;;;;;5018182;28;20042;-46
2021/04/04 12:40:25;;;;;;;1.13;0.90;;;;;;;;;;5025406;28;20053;-45
2021/04/04 12:43:02;;;;;;;1.17;1.17;;;;;;;;;;5027920;28;20042;-47
2021/04/04 12:45:33;;;;;;;1.20;1.10;;;;;;;;;;5022540;28;20049;-45
2021/04/04 12:48:00;;;;;;;0.98;0.98;;;;;;;;;;5027201;28;20045;-46
2021/04/04 12:50:27;;;;;;;0.90;0.90;;;;;;;;;;5021609;28;20048;-46
2021/04/04 12:52:54;;;;;;;0.80;0.80;;;;;;;;;;5026929;28;20033;-45
2021/04/04 12:55:31;;;;;;;0.90;0.90;;;;;;;;;;5024666;28;20371;-46
2021/04/04 12:57:59;;;;;;;2.47;1.00;;;;;;;;;;5023606;28;20042;-45
2021/04/04 13:00:30;;;;;;;2.08;1.10;;;;;;;;;;5030478;28;20049;-46
2021/04/04 13:02:56;;;;;;;1.35;1.20;;;;;;;;;;5021563;28;20056;-45
2021/04/04 13:05:24;;;;;;;1.77;0.90;;;;;;;;;;5027381;28;20030;-45
2021/04/04 13:07:51;;;;;;;1.20;0.95;;;;;;;;;;5023899;28;20026;-46
2021/04/04 13:10:17;;;;;;;1.90;0.90;;;;;;;;;;5019382;28;20049;-45
2021/04/04 13:12:44;;;;;;;3.97;0.90;;;;;;;;;;5030509;28;20030;-45
2021/04/04 13:15:21;;;;;;;2.38;1.08;;;;;;;;;;5022974;28;20084;-44
2021/04/04 13:17:48;;;;;;;0.85;0.80;;;;;;;;;;5022241;28;20053;-45
2021/04/04 13:20:14;;;;;;;1.00;1.00;;;;;;;;;;5018862;28;20375;-46
2021/04/04 13:22:41;;;;;;;0.90;0.90;;;;;;;;;;5023413;28;20046;-45
2021/04/04 13:25:08;;;;;;;2.13;1.20;;;;;;;;;;5030632;28;20037;-45
2021/04/04 13:27:34;;;;;;;1.02;1.02;;;;;;;;;;5021817;28;20040;-46
2021/04/04 13:30:01;;;;;;;1.05;1.05;;;;;;;;;;5028754;28;20104;-45
2021/04/04 13:32:47;;;;;;;1.00;0.90;;;;;;;;;;5017609;28;20120;-44
2021/04/04 13:35:24;;;;;;;1.38;0.80;;;;;;;;;;5023930;28;20104;-44
2021/04/04 13:37:50;;;;;;;1.75;0.80;;;;;;;;;;5028183;28;20433;-45
2021/04/04 13:40:16;;;;;;;0.90;0.90;;;;;;;;;;5021531;28;20628;-44
2021/04/04 13:42:49;;;;;;;0.90;0.90;;;;;;;;;;5024695;28;20084;-45
2021/04/04 13:45:34;;;;;;;2.25;2.05;;;;;;;;;;5027695;28;20037;-45
2021/04/04 13:48:00;;;;;;;1.25;1.20;;;;;;;;;;5021873;28;20041;-44
2021/04/04 13:50:40;;;;;;;0.90;0.90;;;;;;;;;;5022107;28;20033;-43
2021/04/04 13:53:15;;;;;;;1.00;1.00;;;;;;;;;;5024629;28;20033;-45
2021/04/04 13:55:41;;;;;;;3.17;0.98;;;;;;;;;;5022840;28;20044;-45
2021/04/04 13:58:25;;;;;;;0.90;0.90;;;;;;;;;;5029714;28;20106;-45
2021/04/04 14:00:51;;;;;;;1.83;1.00;;;;;;;;;;5026301;28;20038;-46
2021/04/04 14:03:18;;;;;;;0.90;0.90;;;;;;;;;;5026338;28;20040;-45
2021/04/04 14:05:44;;;;;;;0.90;0.90;;;;;;;;;;5027649;28;20045;-44
2021/04/04 14:08:10;;;;;;;1.08;1.00;;;;;;;;;;5020090;28;20445;-44
2021/04/04 14:10:37;;;;;;;0.95;0.95;;;;;;;;;;5025716;28;20037;-45
2021/04/04 14:13:04;;;;;;;1.10;1.10;;;;;;;;;;5021790;28;20616;-46
2021/04/04 14:15:33;;;;;;;0.90;0.90;;;;;;;;;;5018747;28;20112;-45
2021/04/04 14:18:00;;;;;;;1.00;1.00;;;;;;;;;;5024462;28;20052;-45
2021/04/04 14:20:27;;;;;;;1.00;1.00;;;;;;;;;;5020935;28;20037;-46
2021/04/04 14:22:53;;;;;;;1.60;1.58;;;;;;;;;;5017926;28;20404;-44
2021/04/04 14:25:20;;;;;;;1.90;1.90;;;;;;;;;;5020280;28;20378;-44
2021/04/04 14:27:46;;;;;;;2.70;2.70;;;;;;;;;;5026200;28;20048;-45
2021/04/04 14:30:17;;;;;;;1.85;1.85;;;;;;;;;;5023412;28;20389;-44
2021/04/04 14:32:43;;;;;;;2.03;1.92;;;;;;;;;;5024348;28;20494;-45
2021/04/04 14:35:11;;;;;;;3.42;2.28;;;;;;;;;;5028711;28;20064;-48
2021/04/04 14:37:37;;;;;;;1.10;1.10;;;;;;;;;;5016989;28;20038;-46
2021/04/04 14:40:04;;;;;;;1.15;1.15;;;;;;;;;;5016199;28;20128;-44
2021/04/04 14:42:30;;;;;;;2.60;2.60;;;;;;;;;;5028788;28;20045;-45
2021/04/04 14:44:56;;;;;;;3.92;3.83;;;;;;;;;;5023884;28;20693;-44
2021/04/04 14:47:23;;;;;;;4.93;4.82;;;;;;;;;;5030062;28;20087;-45